Time;durP1;ratioP1;P1;durP2;ratioP2;P2;SDS_P1;SDS_P2;PMS_P1;PMS_P2;Temp;Humidity;BMP_temperature;BMP_pressure;BME280_temperature;BME280_humidity;BME280_pressure;Samples;Min_cycle;Max_cycle;Signal;HPM_P1;HPM_P2
2023/01/18 00:00:46;;;;;;;16.42;4.25;;;;;;;13.67;100.00;99309.03;5012834;28;20077;-77
2023/01/18 00:03:12;;;;;;;23.13;4.50;;;;;;;13.65;100.00;99309.88;5013449;28;20049;-77
2023/01/18 00:05:41;;;;;;;14.15;3.78;;;;;;;13.63;100.00;99314.19;5029774;28;20037;-77
2023/01/18 00:08:12;;;;;;;20.42;6.57;;;;;;;13.45;100.00;99287.28;5030112;28;20072;-75
2023/01/18 00:10:37;;;;;;;13.55;3.45;;;;;;;13.56;100.00;99296.00;5029973;28;20053;-75
2023/01/18 00:13:03;;;;;;;20.25;5.40;;;;;;;13.59;100.00;99280.47;5034096;28;20040;-83
2023/01/18 00:15:32;;;;;;;16.08;4.47;;;;;;;13.67;100.00;99301.25;5047973;28;20048;-78
2023/01/18 00:17:57;;;;;;;12.98;4.53;;;;;;;13.53;100.00;99275.25;5049439;28;20044;-83
2023/01/18 00:20:25;;;;;;;20.10;4.15;;;;;;;13.67;100.00;99301.25;5033537;28;20024;-84
2023/01/18 00:22:51;;;;;;;11.23;3.45;;;;;;;13.59;100.00;99305.53;5045305;28;20038;-87
2023/01/18 00:25:18;;;;;;;13.55;3.08;;;;;;;13.49;100.00;99280.41;5013310;28;20038;-83
2023/01/18 00:27:46;;;;;;;13.95;3.35;;;;;;;13.71;100.00;99325.50;5030170;28;20033;-85
2023/01/18 00:30:12;;;;;;;11.63;3.22;;;;;;;13.52;100.00;99293.38;5029980;28;20033;-84
2023/01/18 00:32:38;;;;;;;14.23;3.95;;;;;;;13.38;100.00;99264.78;5029458;28;20041;-84
2023/01/18 00:35:07;;;;;;;16.67;3.65;;;;;;;13.73;100.00;99322.03;5013861;28;20079;-85
2023/01/18 00:37:34;;;;;;;14.20;3.90;;;;;;;13.61;100.00;99295.16;5030222;28;20135;-85
2023/01/18 00:39:59;;;;;;;20.23;4.28;;;;;;;13.43;100.00;99276.91;5029838;28;20053;-85
2023/01/18 00:45:29;;;;;;;15.45;4.65;;;;;;;13.62;100.00;99283.91;5050854;28;20102;-86
2023/01/18 00:47:55;;;;;;;14.95;3.25;;;;;;;13.48;100.00;99260.50;5049317;28;20039;-84
2023/01/18 00:50:21;;;;;;;18.85;3.30;;;;;;;13.47;100.00;99261.38;5049148;28;20119;-84
2023/01/18 00:52:48;;;;;;;13.20;3.10;;;;;;;13.63;100.00;99296.03;5032719;28;20502;-83
2023/01/18 00:55:15;;;;;;;16.30;3.88;;;;;;;13.59;100.00;99282.19;5049558;28;20071;-82
2023/01/18 00:57:41;;;;;;;22.40;3.97;;;;;;;13.42;100.00;99262.22;5048577;28;20040;-80
2023/01/18 01:00:10;;;;;;;15.95;3.88;;;;;;;13.15;100.00;99218.81;5048950;28;20021;-81
2023/01/18 01:02:39;;;;;;;13.00;3.08;;;;;;;13.69;100.00;99296.06;5049160;28;20136;-81
2023/01/18 01:08:16;;;;;;;16.30;3.53;;;;;;;13.62;100.00;99284.81;5048668;28;20146;-85
2023/01/18 01:10:46;;;;;;;15.73;4.32;;;;;;;13.65;100.00;99294.31;5032006;28;20045;-81
2023/01/18 01:27:05;;;;;;;14.77;3.63;;;;;;;13.56;100.00;99311.56;5051120;28;20078;-81
2023/01/18 01:29:31;;;;;;;14.68;3.60;;;;;;;13.58;100.00;99302.06;5039733;28;20037;-77
2023/01/18 01:31:56;;;;;;;14.93;3.83;;;;;;;13.58;100.00;99293.41;5030986;28;20037;-77
2023/01/18 01:34:22;;;;;;;21.70;4.28;;;;;;;13.41;100.00;99260.47;5031852;28;20439;-82
2023/01/18 01:36:49;;;;;;;18.58;3.42;;;;;;;13.37;100.00;99253.56;5031646;28;20473;-81
2023/01/18 01:39:15;;;;;;;16.42;3.97;;;;;;;13.53;100.00;99271.78;5012479;28;20034;-86
2023/01/18 01:41:40;;;;;;;19.15;3.45;;;;;;;13.08;100.00;99199.78;5031290;28;20384;-83
2023/01/18 01:44:23;;;;;;;21.08;4.30;;;;;;;13.66;100.00;99294.31;5031806;28;20025;-83
2023/01/18 01:46:51;;;;;;;14.98;3.38;;;;;;;13.67;100.00;99293.47;5031773;28;20025;-82
2023/01/18 01:49:45;;;;;;;18.13;3.80;;;;;;;13.63;100.00;99285.66;5031512;28;20060;-84
2023/01/18 01:52:17;;;;;;;21.05;4.47;;;;;;;13.47;100.00;99266.56;5029245;28;20163;-82
2023/01/18 01:55:01;;;;;;;14.70;3.35;;;;;;;13.76;100.00;99287.47;5031159;28;20029;-84
2023/01/18 01:57:40;;;;;;;17.77;3.78;;;;;;;13.51;100.00;99250.19;5031238;28;20079;-83
2023/01/18 02:00:12;;;;;;;17.48;4.05;;;;;;;13.76;100.00;99303.03;5031141;28;20036;-83
2023/01/18 02:02:39;;;;;;;15.18;3.88;;;;;;;13.54;100.00;99271.78;5030680;28;20029;-83
2023/01/18 02:05:06;;;;;;;14.18;3.53;;;;;;;13.56;100.00;99269.22;5031271;28;20072;-83
2023/01/18 02:07:32;;;;;;;14.90;3.80;;;;;;;13.40;100.00;99263.06;5030389;28;20025;-86
2023/01/18 02:10:00;;;;;;;18.27;3.97;;;;;;;13.64;100.00;99298.63;5031189;28;20103;-84
2023/01/18 02:12:27;;;;;;;30.90;3.83;;;;;;;13.54;100.00;99296.84;5030875;28;20025;-83
2023/01/18 02:14:55;;;;;;;24.60;4.70;;;;;;;13.49;100.00;99302.00;5030458;28;20491;-83
2023/01/18 02:17:30;;;;;;;19.25;4.35;;;;;;;13.66;100.00;99330.63;5018424;28;20040;-83
2023/01/18 02:20:53;;;;;;;17.98;4.18;;;;;;;13.70;100.00;99318.56;5030758;28;20025;-84
2023/01/18 02:23:31;;;;;;;20.42;4.40;;;;;;;13.68;100.00;99310.78;4969655;28;20038;-84
2023/01/18 02:26:14;;;;;;;25.35;4.70;;;;;;;13.58;100.00;99306.38;4970024;28;20449;-82
2023/01/18 02:28:44;;;;;;;20.17;4.35;;;;;;;13.46;100.00;99285.56;4969334;28;20049;-84
2023/01/18 02:31:17;;;;;;;20.60;3.47;;;;;;;13.22;100.00;99238.75;4969224;28;20113;-89
2023/01/18 02:33:51;;;;;;;14.88;3.53;;;;;;;13.50;100.00;99284.72;4950007;29;20038;-82
2023/01/18 02:36:32;;;;;;;23.38;4.55;;;;;;;13.30;100.00;99259.50;4948485;28;20043;-85
2023/01/18 02:39:22;;;;;;;19.27;4.80;;;;;;;13.66;100.00;99325.44;4969521;28;20050;-81
2023/01/18 02:47:28;;;;;;;20.65;4.57;;;;;;;13.57;100.00;99315.00;4969363;28;20089;-79
2023/01/18 02:49:58;;;;;;;17.35;3.25;;;;;;;13.59;100.00;99321.97;4969073;28;20402;-78
2023/01/18 02:52:38;;;;;;;16.67;4.25;;;;;;;13.57;100.00;99320.19;4952734;28;20074;-77
2023/01/18 02:55:11;;;;;;;18.08;4.03;;;;;;;13.50;100.00;99308.06;5021080;28;20447;-77
2023/01/18 02:57:36;;;;;;;26.35;3.97;;;;;;;13.56;100.00;99326.25;5027944;28;20041;-78
2023/01/18 03:00:05;;;;;;;14.07;3.53;;;;;;;13.55;100.00;99319.34;5029924;28;20037;-78
2023/01/18 03:02:31;;;;;;;20.80;3.80;;;;;;;13.03;100.00;99242.06;5028618;28;20036;-79
2023/01/18 03:04:57;;;;;;;15.48;3.33;;;;;;;13.30;100.00;99297.53;5030516;28;20061;-77
2023/01/18 03:07:24;;;;;;;17.85;3.85;;;;;;;13.31;100.00;99302.72;5029984;28;20068;-77
2023/01/18 03:09:49;;;;;;;20.95;3.67;;;;;;;13.40;100.00;99307.13;5029659;28;20050;-77
2023/01/18 03:12:44;;;;;;;18.27;4.10;;;;;;;13.43;100.00;99318.41;5030248;28;20503;-77
2023/01/18 03:15:26;;;;;;;17.70;3.42;;;;;;;13.42;100.00;99315.78;5029886;28;20041;-76
2023/01/18 03:17:56;;;;;;;18.83;4.15;;;;;;;13.43;100.00;99309.72;5030219;28;20092;-77
2023/01/18 03:20:26;;;;;;;16.15;3.50;;;;;;;13.42;100.00;99319.25;5029964;28;20049;-76
2023/01/18 03:25:51;;;;;;;23.05;4.55;;;;;;;13.53;100.00;99315.84;5030276;28;20045;-80
2023/01/18 03:34:08;;;;;;;17.67;2.78;;;;;;;13.56;100.00;99314.16;5029608;28;20403;-75
2023/01/18 03:36:42;;;;;;;20.88;4.25;;;;;;;13.56;100.00;99310.69;5029600;28;20564;-78
2023/01/18 03:39:18;;;;;;;20.42;4.25;;;;;;;13.54;100.00;99304.63;5029927;28;20492;-78
2023/01/18 03:41:49;;;;;;;23.40;4.70;;;;;;;13.49;100.00;99311.50;5029935;28;20026;-77
2023/01/18 03:44:41;;;;;;;20.17;4.53;;;;;;;13.06;100.00;99234.28;5029522;28;20025;-82
2023/01/18 03:47:07;;;;;;;13.70;3.20;;;;;;;13.52;100.00;99303.75;4968739;28;20105;-78
2023/01/18 03:49:33;;;;;;;20.27;3.92;;;;;;;13.61;100.00;99321.97;4968578;28;20537;-77
2023/01/18 03:52:20;;;;;;;17.17;4.43;;;;;;;13.68;100.00;99333.22;4968630;28;20093;-78
2023/01/18 03:54:51;;;;;;;17.55;3.60;;;;;;;13.64;100.00;99334.94;4968735;28;20074;-77
2023/01/18 03:57:33;;;;;;;22.10;4.35;;;;;;;13.45;100.00;99287.28;4968122;28;20051;-77
2023/01/18 04:00:01;;;;;;;15.20;4.00;;;;;;;13.36;100.00;99287.22;4968756;28;20042;-77
2023/01/18 04:02:26;;;;;;;16.92;3.85;;;;;;;13.68;100.00;99335.81;4968369;28;20114;-78
2023/01/18 04:04:56;;;;;;;17.98;3.25;;;;;;;13.68;100.00;99334.13;4968506;28;20505;-78
2023/01/18 04:07:24;;;;;;;22.98;4.38;;;;;;;13.54;100.00;99320.19;4968006;28;20019;-76
2023/01/18 04:09:50;;;;;;;21.20;4.00;;;;;;;13.50;100.00;99327.06;4968303;28;20160;-77
2023/01/18 04:12:16;;;;;;;17.63;3.33;;;;;;;13.49;100.00;99314.97;4968598;28;20090;-77
2023/01/18 04:14:41;;;;;;;21.90;4.30;;;;;;;13.24;100.00;99280.22;4968235;28;20568;-76
2023/01/18 04:17:07;;;;;;;21.60;3.95;;;;;;;13.57;100.00;99344.41;4968447;28;20035;-77
2023/01/18 04:19:32;;;;;;;19.58;3.63;;;;;;;13.61;100.00;99342.72;4968357;28;20037;-77
2023/01/18 04:21:57;;;;;;;22.23;4.75;;;;;;;13.34;100.00;99305.31;4971487;28;20026;-77
2023/01/18 04:24:23;;;;;;;16.88;3.90;;;;;;;13.30;100.00;99308.75;5006967;28;20091;-78
2023/01/18 04:26:48;;;;;;;19.83;3.22;;;;;;;13.67;100.00;99358.31;5032768;28;20479;-78
2023/01/18 04:29:14;;;;;;;21.73;4.20;;;;;;;13.65;100.00;99356.56;5031690;28;20029;-78
2023/01/18 04:31:39;;;;;;;20.77;4.90;;;;;;;13.57;100.00;99364.28;5018808;28;20050;-78
2023/01/18 04:34:04;;;;;;;20.75;4.35;;;;;;;12.94;100.00;99264.44;5032683;28;20032;-80
2023/01/18 04:36:31;;;;;;;27.08;4.40;;;;;;;13.51;100.00;99354.75;5032394;28;20103;-80
2023/01/18 04:38:58;;;;;;;24.20;4.30;;;;;;;13.51;100.00;99359.06;5032680;28;20034;-80
2023/01/18 04:41:23;;;;;;;26.88;4.78;;;;;;;13.10;100.00;99290.47;5032611;28;20017;-83
2023/01/18 04:43:49;;;;;;;24.92;4.53;;;;;;;12.93;100.00;99261.84;5031687;28;20026;-79
2023/01/18 04:46:14;;;;;;;18.40;3.80;;;;;;;13.50;100.00;99378.06;5031545;28;20018;-80
2023/01/18 04:48:40;;;;;;;23.02;4.72;;;;;;;13.01;100.00;99300.75;5013321;28;20053;-80
2023/01/18 04:51:13;;;;;;;23.25;4.00;;;;;;;13.36;100.00;99344.25;5013297;28;20037;-82
2023/01/18 04:53:42;;;;;;;20.73;4.68;;;;;;;13.10;100.00;99313.81;5027268;28;20458;-79
2023/01/18 04:56:08;;;;;;;22.10;4.18;;;;;;;13.35;100.00;99352.88;5013349;28;20022;-80
2023/01/18 04:58:34;;;;;;;22.95;4.80;;;;;;;13.21;100.00;99337.22;5013438;28;20045;-77
2023/01/18 05:01:04;;;;;;;17.80;4.05;;;;;;;13.52;100.00;99366.84;5013261;28;20032;-80
2023/01/18 05:03:30;;;;;;;21.23;4.40;;;;;;;13.43;100.00;99362.47;5029370;28;20079;-81
2023/01/18 05:05:55;;;;;;;21.70;4.35;;;;;;;13.45;100.00;99367.66;5030116;28;20034;-81
2023/01/18 05:08:21;;;;;;;22.67;4.07;;;;;;;12.70;100.00;99241.81;5029838;28;20072;-83
2023/01/18 05:10:47;;;;;;;19.67;4.28;;;;;;;13.48;100.00;99372.00;5013503;28;20088;-81
2023/01/18 05:13:12;;;;;;;20.58;4.25;;;;;;;13.50;100.00;99381.53;5030220;28;20132;-81
2023/01/18 05:15:37;;;;;;;20.60;4.07;;;;;;;13.54;100.00;99387.59;5030103;28;20034;-81
2023/01/18 05:18:04;;;;;;;23.40;4.35;;;;;;;13.14;100.00;99322.47;5029911;28;20033;-81
2023/01/18 05:20:29;;;;;;;18.45;3.67;;;;;;;13.45;100.00;99374.59;5031805;28;20095;-81
2023/01/18 05:22:55;;;;;;;22.02;5.05;;;;;;;13.34;100.00;99357.16;5032677;28;20038;-82
2023/01/18 05:25:20;;;;;;;24.85;4.82;;;;;;;13.20;100.00;99340.66;5032195;28;20060;-82
2023/01/18 05:27:46;;;;;;;19.40;3.85;;;;;;;13.51;100.00;99401.41;5032043;28;20062;-81
2023/01/18 05:30:12;;;;;;;26.23;5.10;;;;;;;12.90;100.00;99309.31;5031954;28;20036;-81
2023/01/18 05:32:38;;;;;;;23.42;4.78;;;;;;;13.31;100.00;99398.63;5031228;28;20392;-81
2023/01/18 05:35:04;;;;;;;26.30;4.95;;;;;;;13.50;100.00;99416.97;5030940;28;20116;-81
2023/01/18 05:37:30;;;;;;;22.33;4.80;;;;;;;13.11;100.00;99349.22;5031414;28;20076;-81
2023/01/18 05:39:56;;;;;;;21.13;4.70;;;;;;;13.40;100.00;99409.09;5032119;28;20060;-81
2023/01/18 05:42:21;;;;;;;17.92;4.43;;;;;;;13.22;100.00;99390.75;5031956;28;20029;-82
2023/01/18 05:44:48;;;;;;;20.42;4.47;;;;;;;13.10;100.00;99387.22;5031958;28;20551;-82
2023/01/18 05:47:13;;;;;;;27.20;5.47;;;;;;;13.21;100.00;99408.06;5031735;28;20396;-81
2023/01/18 05:49:39;;;;;;;20.90;4.47;;;;;;;13.04;100.00;99394.06;5030303;28;20025;-81
2023/01/18 05:52:04;;;;;;;22.35;5.22;;;;;;;12.84;100.00;99357.63;5030412;28;20155;-82
2023/01/18 05:54:29;;;;;;;18.88;3.78;;;;;;;12.66;100.00;99330.69;5031816;28;20033;-81
2023/01/18 05:56:55;;;;;;;18.50;3.92;;;;;;;13.01;100.00;99394.91;5025824;28;20041;-81
2023/01/18 05:59:21;;;;;;;23.13;5.50;;;;;;;12.95;100.00;99395.69;5030273;28;20026;-81
2023/01/18 06:01:46;;;;;;;16.42;4.63;;;;;;;12.94;100.00;99393.97;5031421;28;20071;-81
2023/01/18 06:04:12;;;;;;;14.00;3.00;;;;;;;12.79;100.00;99363.59;5031584;28;20029;-81
2023/01/18 06:06:37;;;;;;;17.73;4.45;;;;;;;12.66;100.00;99337.56;5031422;28;20423;-81
2023/01/18 06:09:02;;;;;;;26.48;4.80;;;;;;;13.15;100.00;99381.22;5030210;28;20049;-81
2023/01/18 06:11:28;;;;;;;14.23;3.60;;;;;;;13.17;100.00;99380.38;5031270;28;20033;-81
2023/01/18 06:13:55;;;;;;;18.73;4.53;;;;;;;13.03;100.00;99343.09;5030047;28;20026;-80
2023/01/18 06:16:20;;;;;;;20.52;4.78;;;;;;;13.35;100.00;99386.56;5017637;28;20029;-81
2023/01/18 06:18:46;;;;;;;21.73;4.95;;;;;;;13.20;100.00;99376.94;5025821;28;20021;-81
2023/01/18 06:21:11;;;;;;;28.25;4.75;;;;;;;13.15;100.00;99366.53;5013909;28;20061;-78
2023/01/18 06:23:37;;;;;;;16.65;4.38;;;;;;;13.29;100.00;99387.38;5011211;28;20033;-76
2023/01/18 06:26:03;;;;;;;20.80;3.65;;;;;;;13.31;100.00;99388.25;5011441;28;20034;-76
2023/01/18 06:28:28;;;;;;;22.90;4.43;;;;;;;13.25;100.00;99381.28;5011456;28;20037;-76
2023/01/18 06:30:55;;;;;;;22.55;4.05;;;;;;;13.13;100.00;99357.00;5010949;28;20459;-75
2023/01/18 06:33:21;;;;;;;19.20;3.97;;;;;;;13.30;100.00;99396.03;5015690;28;20458;-75
2023/01/18 06:35:47;;;;;;;15.40;3.38;;;;;;;13.29;100.00;99397.75;5021955;28;20033;-76
2023/01/18 06:38:14;;;;;;;22.30;4.60;;;;;;;12.58;100.00;99262.41;5020687;28;20030;-77
2023/01/18 06:40:40;;;;;;;23.25;5.25;;;;;;;13.26;100.00;99384.78;5019419;28;20499;-75
2023/01/18 06:43:07;;;;;;;24.65;5.55;;;;;;;13.34;100.00;99390.00;5019522;28;20079;-77
2023/01/18 06:45:33;;;;;;;23.50;5.80;;;;;;;13.42;100.00;99397.03;5020663;28;20030;-77
2023/01/18 06:47:59;;;;;;;26.58;5.32;;;;;;;13.45;100.00;99398.78;5041968;28;20053;-76
2023/01/18 06:50:24;;;;;;;15.35;3.58;;;;;;;13.28;100.00;99372.66;5011077;28;20026;-76
2023/01/18 06:52:50;;;;;;;20.13;4.43;;;;;;;13.11;100.00;99316.41;5017000;28;20395;-76
2023/01/18 06:55:16;;;;;;;20.95;4.00;;;;;;;13.29;100.00;99338.13;5030725;28;20030;-76
2023/01/18 06:57:41;;;;;;;25.50;4.97;;;;;;;13.68;100.00;99404.16;5024555;28;20025;-82
2023/01/18 07:00:08;;;;;;;15.48;3.60;;;;;;;13.68;100.00;99411.94;5023504;28;20029;-82
2023/01/18 07:02:35;;;;;;;19.85;3.95;;;;;;;13.43;100.00;99357.28;5019513;28;20052;-81
2023/01/18 07:05:02;;;;;;;20.45;4.00;;;;;;;13.73;100.00;99420.59;5021356;28;20040;-81
2023/01/18 07:07:28;;;;;;;20.20;4.03;;;;;;;13.74;100.00;99424.94;5010852;28;20030;-79
2023/01/18 07:09:53;;;;;;;17.17;3.65;;;;;;;13.60;100.00;99405.81;5019549;28;20042;-81
2023/01/18 07:12:19;;;;;;;12.93;3.13;;;;;;;13.78;100.00;99422.34;5026189;28;20033;-79
2023/01/18 07:14:45;;;;;;;12.52;2.80;;;;;;;13.84;100.00;99430.19;5030075;28;20026;-78
2023/01/18 07:17:11;;;;;;;12.77;3.20;;;;;;;13.95;100.00;99435.44;5019845;28;20026;-77
2023/01/18 07:19:37;;;;;;;16.95;2.97;;;;;;;13.90;100.00;99414.66;5020769;28;20038;-78
2023/01/18 07:22:02;;;;;;;12.98;3.58;;;;;;;13.64;100.00;99347.91;5017635;28;20419;-78
2023/01/18 07:24:28;;;;;;;14.82;4.25;;;;;;;14.08;100.00;99417.38;5018620;28;20069;-79
2023/01/18 07:26:53;;;;;;;14.20;3.05;;;;;;;14.28;100.00;99434.78;5023540;28;20025;-77
2023/01/18 07:29:20;;;;;;;17.95;4.32;;;;;;;14.31;100.00;99432.19;5033832;28;20116;-78
2023/01/18 07:31:45;;;;;;;19.42;4.05;;;;;;;14.20;100.00;99405.31;5020421;28;20095;-79
2023/01/18 07:34:12;;;;;;;22.55;3.58;;;;;;;14.58;100.00;99451.38;5018584;28;20476;-79
2023/01/18 07:36:38;;;;;;;15.07;3.15;;;;;;;14.54;100.00;99436.59;5021043;28;20070;-80
2023/01/18 07:39:05;;;;;;;17.48;3.75;;;;;;;14.57;100.00;99434.91;5017998;28;20038;-80
2023/01/18 07:41:31;;;;;;;27.27;4.68;;;;;;;14.64;100.00;99440.13;5020348;28;20388;-78
2023/01/18 07:43:57;;;;;;;14.23;3.13;;;;;;;14.90;100.00;99468.81;5022463;28;20087;-79
2023/01/18 07:46:25;;;;;;;14.32;3.40;;;;;;;14.83;100.00;99446.28;5029018;28;20033;-78
2023/01/18 07:48:51;;;;;;;17.73;3.42;;;;;;;14.79;100.00;99427.22;5030485;28;20033;-78
2023/01/18 07:51:18;;;;;;;14.77;3.38;;;;;;;14.46;100.00;99360.41;5030029;28;20029;-80
2023/01/18 07:53:44;;;;;;;21.55;3.92;;;;;;;14.79;100.00;99388.25;5029927;28;20029;-78
2023/01/18 07:56:16;;;;;;;16.90;3.63;;;;;;;15.14;100.00;99442.03;5033829;28;20033;-78
2023/01/18 07:58:41;;;;;;;17.17;3.90;;;;;;;15.22;100.00;99442.03;5033991;28;20025;-78
2023/01/18 08:01:13;;;;;;;23.02;4.50;;;;;;;15.31;100.00;99439.44;5033710;28;20472;-78
2023/01/18 08:03:41;;;;;;;18.65;4.18;;;;;;;15.37;100.00;99446.38;5032586;28;20028;-78
2023/01/18 08:06:07;;;;;;;19.50;4.60;;;;;;;15.48;100.00;99452.47;5032245;28;20033;-79
2023/01/18 08:08:35;;;;;;;17.95;3.08;;;;;;;15.39;100.00;99407.38;5033469;28;20142;-79
2023/01/18 08:11:02;;;;;;;14.25;4.03;;;;;;;15.66;100.00;99443.81;5033616;28;20037;-79
2023/01/18 08:13:28;;;;;;;18.20;3.80;;;;;;;15.06;100.00;99313.78;5033378;28;20068;-78
2023/01/18 08:15:55;;;;;;;18.60;3.88;;;;;;;15.48;100.00;99404.78;5032203;28;20052;-78
2023/01/18 08:18:20;;;;;;;9.50;2.35;;;;;;;15.41;100.00;99319.81;5033475;28;20034;-78
2023/01/18 08:20:47;;;;;;;19.48;3.85;;;;;;;15.82;100.00;99409.97;5033359;28;20028;-78
2023/01/18 08:23:14;;;;;;;14.32;3.28;;;;;;;15.52;100.00;99389.16;5033199;28;20025;-77
2023/01/18 08:25:40;;;;;;;18.10;3.88;;;;;;;15.92;100.00;99429.91;5047588;28;20048;-78
2023/01/18 08:28:10;;;;;;;14.10;2.95;;;;;;;15.94;100.00;99419.53;5033462;28;20105;-78
2023/01/18 08:30:39;;;;;;;19.50;4.40;;;;;;;16.02;100.00;99433.38;5033221;28;20028;-78
2023/01/18 08:33:06;;;;;;;;;;;;;;;16.10;100.00;99423.81;5032208;28;20029;-78
2023/01/18 08:35:42;;;;;;;17.25;3.88;;;;;;;15.96;100.00;99423.84;5032984;28;19924;-80
2023/01/18 08:38:09;;;;;;;17.02;4.00;;;;;;;16.10;100.00;99438.56;5032415;28;20033;-80
2023/01/18 08:40:34;;;;;;;13.85;2.65;;;;;;;16.25;100.00;99451.56;5012041;28;20034;-78
2023/01/18 08:43:01;;;;;;;11.35;3.42;;;;;;;16.30;100.00;99439.38;5013295;28;20112;-78
2023/01/18 08:45:29;;;;;;;12.90;3.30;;;;;;;16.46;100.00;99463.66;5014215;28;20523;-77
2023/01/18 08:48:04;;;;;;;12.63;2.58;;;;;;;16.52;100.00;99462.75;5013274;28;20029;-77
2023/01/18 08:50:31;;;;;;;23.88;4.30;;;;;;;16.57;100.00;99452.31;5013180;28;20045;-77
2023/01/18 08:52:58;;;;;;;20.08;4.47;;;;;;;16.77;100.00;99463.53;5013203;28;20029;-78
2023/01/18 08:55:25;;;;;;;18.60;4.22;;;;;;;16.86;100.00;99462.63;5013083;28;20021;-79
2023/01/18 08:57:53;;;;;;;13.35;2.53;;;;;;;16.89;99.31;99459.13;5013096;28;20033;-78
2023/01/18 09:00:21;;;;;;;20.77;4.22;;;;;;;16.91;99.63;99479.13;5012955;28;20022;-78
2023/01/18 09:02:48;;;;;;;18.52;4.00;;;;;;;17.01;99.10;99484.28;5012746;28;20639;-77
2023/01/18 09:05:13;;;;;;;17.67;3.53;;;;;;;16.97;98.04;99473.00;5012694;28;20411;-78
2023/01/18 09:07:39;;;;;;;22.35;4.22;;;;;;;16.47;99.18;99383.75;5014585;28;20033;-79
2023/01/18 09:10:04;;;;;;;14.23;3.40;;;;;;;16.87;98.34;99417.41;5019539;28;20048;-78
2023/01/18 09:12:33;;;;;;;15.23;3.60;;;;;;;16.89;97.88;99405.22;5014981;28;20036;-79
2023/01/18 09:14:59;;;;;;;14.02;3.55;;;;;;;17.34;93.60;99451.06;5032422;28;20037;-78
2023/01/18 09:17:24;;;;;;;13.25;4.20;;;;;;;17.15;93.63;99422.50;5019508;28;20026;-80
2023/01/18 09:19:49;;;;;;;22.02;5.03;;;;;;;17.29;93.54;99422.41;5021627;28;20021;-78
2023/01/18 09:22:15;;;;;;;20.30;4.03;;;;;;;17.44;90.05;99427.47;5023342;28;20445;-78
2023/01/18 09:24:41;;;;;;;19.23;3.35;;;;;;;17.39;89.40;99433.63;5021405;28;20025;-78
2023/01/18 09:27:07;;;;;;;15.40;3.55;;;;;;;17.47;90.34;99439.66;5020707;28;20022;-79
2023/01/18 09:29:32;;;;;;;20.70;3.33;;;;;;;17.44;88.50;99453.56;5021945;28;20082;-84
2023/01/18 09:31:59;;;;;;;15.07;3.15;;;;;;;17.33;88.85;99418.03;5020092;28;20037;-80
2023/01/18 09:34:25;;;;;;;16.58;2.85;;;;;;;17.38;87.86;99426.69;5027291;28;20487;-80
2023/01/18 09:36:51;;;;;;;17.10;3.28;;;;;;;17.49;87.63;99431.81;5019368;28;20029;-78
2023/01/18 09:39:21;;;;;;;16.73;3.70;;;;;;;17.54;87.80;99430.88;5017805;28;20073;-79
2023/01/18 09:41:53;;;;;;;18.92;2.88;;;;;;;17.49;85.46;99421.38;5012528;28;20115;-77
2023/01/18 09:44:31;;;;;;;20.25;3.67;;;;;;;17.50;86.69;99407.47;5014549;28;20547;-81
2023/01/18 09:47:16;;;;;;;12.55;2.45;;;;;;;17.69;85.09;99424.66;5012593;28;20037;-80
2023/01/18 09:49:55;;;;;;;12.52;2.60;;;;;;;17.72;85.86;99424.66;5014499;28;20040;-75
2023/01/18 09:52:41;;;;;;;13.18;3.47;;;;;;;17.76;85.95;99418.50;5011759;28;20105;-76
2023/01/18 09:55:26;;;;;;;15.77;3.35;;;;;;;17.64;84.79;99418.63;5013104;28;20053;-76
2023/01/18 09:58:03;;;;;;;15.05;2.97;;;;;;;16.83;85.22;99301.00;5010770;28;20571;-78
2023/01/18 10:00:33;;;;;;;15.02;3.63;;;;;;;17.52;84.76;99406.56;5011183;28;20172;-77
2023/01/18 10:03:06;;;;;;;16.92;3.42;;;;;;;17.38;85.60;99384.94;5027146;28;20039;-80
2023/01/18 10:05:36;;;;;;;14.05;2.65;;;;;;;17.24;84.71;99388.50;5013155;28;20033;-78
2023/01/18 10:08:12;;;;;;;13.55;3.05;;;;;;;17.42;85.39;99428.38;5010455;28;20049;-76
2023/01/18 10:10:43;;;;;;;17.90;3.72;;;;;;;17.47;86.62;99416.19;5008148;28;20164;-81
2023/01/18 10:13:45;;;;;;;15.02;3.15;;;;;;;17.54;86.17;99419.59;5012307;28;20034;-76
2023/01/18 10:16:15;;;;;;;13.73;3.05;;;;;;;17.22;85.26;99389.41;5009195;28;20034;-78
2023/01/18 10:18:47;;;;;;;13.23;2.40;;;;;;;17.60;85.66;99451.72;5010291;28;20030;-75
2023/01/18 10:21:24;;;;;;;15.27;2.97;;;;;;;17.61;84.54;99444.78;5011928;28;20581;-77
2023/01/18 10:24:04;;;;;;;20.88;3.42;;;;;;;17.58;85.04;99453.50;5010271;28;20026;-82
2023/01/18 10:26:30;;;;;;;15.23;3.30;;;;;;;17.12;86.08;99357.31;5010127;28;20079;-79
2023/01/18 10:29:05;;;;;;;17.42;4.03;;;;;;;17.76;86.26;99468.13;5010260;28;20033;-80
2023/01/18 10:31:45;;;;;;;13.80;3.03;;;;;;;17.80;85.55;99437.63;5010468;28;20022;-81
2023/01/18 10:34:24;;;;;;;14.75;3.47;;;;;;;17.89;85.68;99460.19;5009939;28;20037;-78
2023/01/18 10:36:56;;;;;;;21.83;4.75;;;;;;;17.88;85.15;99456.72;5008833;28;20089;-83
2023/01/18 10:39:38;;;;;;;18.23;3.78;;;;;;;17.96;85.97;99467.13;5010367;28;20026;-82
2023/01/18 10:42:16;;;;;;;12.60;2.80;;;;;;;17.89;85.58;99455.81;5010052;28;20061;-83
2023/01/18 10:44:42;;;;;;;18.75;3.75;;;;;;;17.33;84.96;99377.13;5010632;28;20026;-80
2023/01/18 10:47:07;;;;;;;17.92;3.95;;;;;;;18.04;85.21;99454.81;5010535;28;20105;-81
2023/01/18 10:49:45;;;;;;;21.05;3.50;;;;;;;18.17;84.60;99478.22;5010162;28;20018;-80
2023/01/18 10:52:24;;;;;;;17.80;3.72;;;;;;;18.15;84.71;99449.50;5010290;28;20111;-78
2023/01/18 10:54:56;;;;;;;22.27;3.17;;;;;;;18.25;85.06;99439.81;5009901;28;20061;-78
2023/01/18 10:57:27;;;;;;;20.20;4.00;;;;;;;18.38;83.36;99458.81;5010409;28;20034;-78
2023/01/18 10:59:55;;;;;;;16.58;3.40;;;;;;;18.27;83.75;99467.66;5009878;28;20038;-74
2023/01/18 11:02:26;;;;;;;15.15;2.83;;;;;;;18.24;83.73;99464.22;5009870;28;20489;-78
2023/01/18 11:04:57;;;;;;;23.83;4.22;;;;;;;18.18;83.94;99501.72;5010199;28;20030;-78
2023/01/18 11:07:25;;;;;;;17.85;4.20;;;;;;;17.99;82.82;99474.91;5017789;28;20040;-77
2023/01/18 11:09:55;;;;;;;17.63;3.50;;;;;;;17.96;83.96;99485.38;5010029;28;20073;-74
2023/01/18 11:12:36;;;;;;;16.45;3.50;;;;;;;17.98;84.23;99488.88;5009763;28;20403;-76
2023/01/18 11:15:14;;;;;;;21.55;3.58;;;;;;;17.92;84.13;99492.34;5009663;28;20034;-76
2023/01/18 11:17:49;;;;;;;16.35;3.65;;;;;;;17.84;85.21;99465.44;5010148;28;20026;-77
2023/01/18 11:20:20;;;;;;;14.05;2.70;;;;;;;18.02;83.93;99505.34;5009696;28;20411;-78
2023/01/18 11:23:02;;;;;;;18.55;3.42;;;;;;;18.05;84.21;99507.94;5009483;28;20030;-77
2023/01/18 11:25:41;;;;;;;22.45;3.85;;;;;;;17.68;83.74;99440.34;5010079;28;20437;-77
2023/01/18 11:28:19;;;;;;;17.83;4.18;;;;;;;17.76;84.76;99482.94;5013265;28;20059;-80
2023/01/18 11:31:06;;;;;;;15.73;3.35;;;;;;;17.78;85.69;99489.88;5032784;28;20384;-79
2023/01/18 11:33:33;;;;;;;16.83;4.20;;;;;;;17.93;86.38;99509.75;5022057;28;20116;-79
2023/01/18 11:36:01;;;;;;;17.13;3.60;;;;;;;18.04;84.05;99524.50;5034103;28;20029;-80
2023/01/18 11:38:30;;;;;;;18.92;4.07;;;;;;;17.94;84.50;99527.19;5032599;28;20021;-78
2023/01/18 11:41:02;;;;;;;;;;;;;;;17.90;84.70;99519.34;5034549;28;20025;-78
2023/01/18 11:43:29;;;;;;;21.35;4.20;;;;;;;17.86;85.32;99517.66;5033552;28;19967;-77
2023/01/18 11:46:00;;;;;;;19.52;4.05;;;;;;;17.85;86.60;99531.59;5033264;28;20518;-79
2023/01/18 11:48:47;;;;;;;25.58;4.50;;;;;;;17.38;87.35;99442.31;5018930;28;20031;-80
2023/01/18 11:51:26;;;;;;;11.90;2.50;;;;;;;17.83;86.15;99529.00;5033494;28;20034;-77
2023/01/18 11:54:10;;;;;;;14.13;3.75;;;;;;;17.82;87.57;99536.81;5032091;28;20064;-81
2023/01/18 11:56:42;;;;;;;15.85;3.78;;;;;;;17.69;88.70;99526.47;5019391;28;20555;-79
2023/01/18 11:59:23;;;;;;;23.65;4.22;;;;;;;17.63;89.28;99539.56;5033577;28;20040;-79
2023/01/18 12:02:01;;;;;;;19.42;4.15;;;;;;;17.55;90.02;99539.63;5032348;28;20031;-77
2023/01/18 12:04:58;;;;;;;23.67;4.03;;;;;;;17.44;91.58;99544.91;5033370;28;20041;-77